Time;durP1;ratioP1;P1;durP2;ratioP2;P2;SDS_P1;SDS_P2;PMS_P1;PMS_P2;Temp;Humidity;BMP_temperature;BMP_pressure;BME280_temperature;BME280_humidity;BME280_pressure;Samples;Min_cycle;Max_cycle;Signal;HPM_P1;HPM_P2
2023/10/12 00:01:58;;;;;;;;;;;20.10;93.20;;;;;;5054656;28;20264;-76
2023/10/12 00:04:24;;;;;;;;;;;20.10;93.10;;;;;;5054366;28;19912;-76
2023/10/12 00:06:51;;;;;;;;;;;20.00;93.00;;;;;;5054704;28;19911;-77
2023/10/12 00:09:19;;;;;;;;;;;20.00;93.30;;;;;;5053315;28;19905;-76
2023/10/12 00:12:07;;;;;;;;;;;20.00;93.00;;;;;;5054448;28;19995;-76
2023/10/12 00:14:33;;;;;;;;;;;20.00;93.10;;;;;;5054328;28;19912;-77
2023/10/12 00:16:59;;;;;;;;;;;19.90;92.90;;;;;;5054668;28;19909;-78
2023/10/12 00:19:25;;;;;;;;;;;19.90;92.90;;;;;;5053947;28;19904;-84
2023/10/12 00:21:56;;;;;;;;;;;19.90;93.00;;;;;;5051944;28;19905;-84
2023/10/12 00:24:22;;;;;;;;;;;19.80;93.00;;;;;;5053783;28;19946;-83
2023/10/12 00:26:49;;;;;;;;;;;19.80;93.20;;;;;;5053362;28;19904;-83
2023/10/12 00:29:15;;;;;;;;;;;19.80;93.20;;;;;;5052935;28;20308;-84
2023/10/12 00:31:43;;;;;;;;;;;19.80;93.30;;;;;;5053787;28;19993;-84
2023/10/12 00:34:10;;;;;;;;;;;19.80;93.30;;;;;;5054021;28;19967;-84
2023/10/12 00:36:37;;;;;;;;;;;19.80;93.30;;;;;;5053535;28;19905;-83
2023/10/12 00:39:09;;;;;;;;;;;19.70;93.30;;;;;;5054223;28;20315;-76
2023/10/12 00:41:43;;;;;;;;;;;19.70;93.30;;;;;;5054331;28;20428;-76
2023/10/12 00:44:10;;;;;;;;;;;19.70;93.40;;;;;;5054274;28;19913;-76
2023/10/12 00:46:42;;;;;;;;;;;19.70;93.40;;;;;;5054034;28;19955;-76
2023/10/12 00:49:19;;;;;;;;;;;19.60;93.40;;;;;;5052482;28;20331;-76
2023/10/12 00:52:08;;;;;;;;;;;19.70;93.40;;;;;;5053033;28;19908;-76
2023/10/12 00:54:49;;;;;;;;;;;19.70;93.30;;;;;;5053313;28;19905;-78
2023/10/12 00:57:16;;;;;;;;;;;19.70;93.10;;;;;;5054121;28;19905;-77
2023/10/12 00:59:43;;;;;;;;;;;19.60;93.10;;;;;;5049578;28;20312;-76
2023/10/12 01:02:15;;;;;;;;;;;19.70;93.20;;;;;;5051263;28;19912;-77
2023/10/12 01:04:53;;;;;;;;;;;19.70;93.20;;;;;;5050263;28;19931;-76
2023/10/12 01:07:34;;;;;;;;;;;19.60;93.20;;;;;;5052726;28;20284;-75
2023/10/12 01:10:06;;;;;;;;;;;19.50;93.20;;;;;;5053265;28;19955;-76
2023/10/12 01:12:34;;;;;;;;;;;19.50;93.10;;;;;;5053210;28;19905;-76
2023/10/12 01:15:10;;;;;;;;;;;19.50;93.10;;;;;;5053263;28;19962;-77
2023/10/12 01:17:36;;;;;;;;;;;19.50;93.20;;;;;;5053314;28;20280;-76
2023/10/12 01:20:16;;;;;;;;;;;19.40;93.00;;;;;;5053219;28;19988;-76
2023/10/12 01:22:42;;;;;;;;;;;19.40;93.00;;;;;;5052002;28;19951;-76
2023/10/12 01:25:12;;;;;;;;;;;19.40;93.10;;;;;;5051939;28;19904;-76
2023/10/12 01:27:43;;;;;;;;;;;19.30;93.10;;;;;;5052879;28;19958;-78
2023/10/12 01:30:27;;;;;;;;;;;19.30;93.10;;;;;;5053365;28;19905;-77
2023/10/12 01:32:59;;;;;;;;;;;19.30;93.20;;;;;;5053434;28;20253;-76
2023/10/12 01:35:38;;;;;;;;;;;19.30;93.30;;;;;;5053246;28;19948;-77
2023/10/12 01:38:05;;;;;;;;;;;19.20;93.30;;;;;;5053438;28;19904;-77
2023/10/12 01:43:29;;;;;;;;;;;19.20;93.40;;;;;;5047833;28;19917;-77
2023/10/12 01:45:59;;;;;;;;;;;19.20;93.30;;;;;;5040335;28;20307;-77
2023/10/12 01:48:29;;;;;;;;;;;19.20;93.30;;;;;;5057185;28;20357;-77
2023/10/12 01:50:56;;;;;;;;;;;19.20;93.40;;;;;;5057260;28;20299;-76
2023/10/12 01:55:54;;;;;;;;;;;19.20;93.30;;;;;;5057327;28;20007;-76
2023/10/12 01:58:20;;;;;;;;;;;19.10;93.30;;;;;;5057140;28;19999;-76
2023/10/12 02:00:52;;;;;;;;;;;19.10;93.30;;;;;;5056652;28;20302;-76
2023/10/12 02:03:26;;;;;;;;;;;19.10;93.40;;;;;;5056579;28;20012;-76
2023/10/12 02:05:58;;;;;;;;;;;19.00;93.50;;;;;;5056734;28;19912;-76
2023/10/12 02:08:34;;;;;;;;;;;19.00;93.60;;;;;;5056789;28;20357;-76
2023/10/12 02:11:10;;;;;;;;;;;19.00;93.70;;;;;;5056848;28;19904;-76
2023/10/12 02:13:36;;;;;;;;;;;19.00;93.70;;;;;;5056633;28;19950;-76
2023/10/12 02:16:05;;;;;;;;;;;19.00;93.70;;;;;;5055450;28;19904;-76
2023/10/12 02:18:31;;;;;;;;;;;19.00;93.70;;;;;;5055190;28;19909;-76
2023/10/12 02:23:36;;;;;;;;;;;19.00;93.60;;;;;;5056958;28;20284;-76
2023/10/12 02:28:53;;;;;;;;;;;19.00;93.70;;;;;;5057048;28;19947;-77
2023/10/12 02:31:22;;;;;;;;;;;19.00;93.80;;;;;;5056945;28;19931;-75
2023/10/12 02:33:51;;;;;;;;;;;19.00;93.90;;;;;;5055523;28;20378;-75
2023/10/12 02:36:22;;;;;;;;;;;19.00;93.80;;;;;;5056295;28;20046;-76
2023/10/12 02:38:48;;;;;;;;;;;19.00;93.80;;;;;;5056616;28;20019;-75
2023/10/12 02:41:14;;;;;;;;;;;19.00;93.90;;;;;;5055351;28;19935;-75
2023/10/12 02:43:43;;;;;;;;;;;19.00;94.00;;;;;;5056219;28;20378;-76
2023/10/12 02:46:21;;;;;;;;;;;19.00;94.00;;;;;;5056391;28;20375;-75
2023/10/12 02:48:47;;;;;;;;;;;19.00;94.00;;;;;;5056024;28;19923;-75
2023/10/12 02:51:16;;;;;;;;;;;19.00;94.10;;;;;;5055744;28;20000;-76
2023/10/12 02:53:42;;;;;;;;;;;19.10;94.00;;;;;;5055404;28;20280;-76
2023/10/12 02:56:08;;;;;;;;;;;19.10;94.00;;;;;;5055808;28;19905;-76
2023/10/12 02:58:33;;;;;;;;;;;19.10;94.10;;;;;;5055775;28;19905;-76
2023/10/12 03:01:12;;;;;;;;;;;19.10;94.20;;;;;;5055995;28;19908;-76
2023/10/12 03:03:39;;;;;;;;;;;19.10;94.20;;;;;;5054536;28;20311;-76
2023/10/12 03:06:08;;;;;;;;;;;19.10;94.10;;;;;;5054483;28;19904;-76
2023/10/12 03:08:46;;;;;;;;;;;19.10;94.10;;;;;;5055747;28;19962;-75
2023/10/12 03:11:19;;;;;;;;;;;19.00;94.10;;;;;;5055653;28;19995;-77
2023/10/12 03:14:00;;;;;;;;;;;19.00;94.00;;;;;;5055245;28;19905;-76
2023/10/12 03:16:32;;;;;;;;;;;19.00;94.00;;;;;;5055498;28;19928;-76
2023/10/12 03:19:00;;;;;;;;;;;18.90;94.00;;;;;;5055537;28;19904;-77
2023/10/12 03:21:33;;;;;;;;;;;18.90;94.10;;;;;;5055294;28;19905;-76
2023/10/12 03:24:02;;;;;;;;;;;18.90;94.00;;;;;;5055147;28;20353;-76
2023/10/12 03:26:28;;;;;;;;;;;18.90;94.20;;;;;;5055032;28;19912;-75
2023/10/12 03:29:01;;;;;;;;;;;18.90;94.20;;;;;;5055229;28;19905;-76
2023/10/12 03:31:35;;;;;;;;;;;18.90;94.20;;;;;;5055193;28;19904;-76
2023/10/12 03:34:01;;;;;;;;;;;18.90;94.20;;;;;;5055091;28;20379;-75
2023/10/12 03:36:37;;;;;;;;;;;18.90;94.20;;;;;;5055260;28;19905;-84
2023/10/12 03:47:00;;;;;;;;;;;18.90;94.20;;;;;;5054661;28;19913;-83
2023/10/12 03:49:32;;;;;;;;;;;18.90;94.20;;;;;;5054272;28;19943;-83
2023/10/12 03:52:07;;;;;;;;;;;18.90;94.30;;;;;;5054488;28;19905;-84
2023/10/12 03:54:33;;;;;;;;;;;18.80;94.30;;;;;;5054608;28;19904;-80
2023/10/12 03:57:19;;;;;;;;;;;18.90;94.40;;;;;;5055518;28;19905;-76
2023/10/12 04:02:30;;;;;;;;;;;18.80;94.40;;;;;;5050773;28;19958;-78
2023/10/12 04:05:45;;;;;;;;;;;18.80;94.20;;;;;;5033822;28;19906;-75
2023/10/12 04:08:39;;;;;;;;;;;18.80;94.20;;;;;;5025686;28;19905;-75
2023/10/12 04:16:09;;;;;;;;;;;18.70;94.40;;;;;;5034810;28;20246;-75
2023/10/12 04:21:39;;;;;;;;;;;18.70;94.60;;;;;;4973280;28;19914;-75
2023/10/12 04:29:13;;;;;;;;;;;18.70;94.60;;;;;;5034390;28;19944;-74
2023/10/12 04:34:10;;;;;;;;;;;18.70;94.40;;;;;;5053958;28;19905;-76
2023/10/12 04:46:51;;;;;;;;;;;18.60;94.80;;;;;;5053768;28;20391;-76
2023/10/12 04:51:49;;;;;;;;;;;18.60;94.90;;;;;;5053546;28;19904;-75
2023/10/12 04:54:23;;;;;;;;;;;18.60;95.00;;;;;;5053373;28;19905;-76
2023/10/12 04:57:32;;;;;;;;;;;18.70;95.10;;;;;;5053284;28;19905;-77
2023/10/12 04:59:50;;;;;;;;;;;18.70;95.10;;;;;;5050293;28;19905;-76
2023/10/12 05:02:23;;;;;;;;;;;18.70;95.10;;;;;;5053302;28;20379;-77
2023/10/12 05:07:55;;;;;;;;;;;18.70;95.10;;;;;;5005114;28;19975;-76
2023/10/12 05:10:31;;;;;;;;;;;18.70;95.20;;;;;;5033272;28;19905;-76
2023/10/12 05:13:10;;;;;;;;;;;18.70;95.20;;;;;;5032985;28;20357;-76
2023/10/12 05:15:40;;;;;;;;;;;18.70;95.20;;;;;;5033232;28;19905;-75
2023/10/12 05:18:06;;;;;;;;;;;18.70;95.20;;;;;;5033526;28;19912;-76
2023/10/12 05:20:32;;;;;;;;;;;18.80;95.10;;;;;;5033366;28;19959;-76
2023/10/12 05:22:58;;;;;;;;;;;18.80;95.00;;;;;;5033152;28;19913;-76
2023/10/12 05:25:32;;;;;;;;;;;18.80;94.90;;;;;;5033003;28;19905;-76
2023/10/12 05:28:31;;;;;;;;;;;18.70;94.80;;;;;;5033195;28;19905;-78
2023/10/12 05:30:55;;;;;;;;;;;18.70;94.60;;;;;;5029756;28;20051;-75
2023/10/12 05:36:01;;;;;;;;;;;18.70;94.70;;;;;;5032871;28;19912;-76
2023/10/12 05:38:34;;;;;;;;;;;18.70;94.70;;;;;;5032550;28;19906;-76
2023/10/12 05:41:00;;;;;;;;;;;18.70;94.70;;;;;;5033585;28;19905;-76
2023/10/12 05:43:33;;;;;;;;;;;18.70;94.80;;;;;;5033288;28;19920;-76
2023/10/12 05:46:21;;;;;;;;;;;18.70;95.00;;;;;;5033399;28;19928;-76
2023/10/12 05:48:46;;;;;;;;;;;18.70;95.10;;;;;;5032865;28;19917;-76
2023/10/12 05:51:21;;;;;;;;;;;18.70;95.30;;;;;;5033503;28;19905;-75
2023/10/12 05:53:48;;;;;;;;;;;18.70;95.30;;;;;;5033212;28;20350;-76
2023/10/12 05:56:17;;;;;;;;;;;18.70;95.30;;;;;;5032876;28;20503;-77
2023/10/12 05:58:46;;;;;;;;;;;18.80;95.40;;;;;;5033253;28;20264;-76
2023/10/12 06:01:36;;;;;;;;;;;18.80;95.10;;;;;;5035443;28;19905;-75
2023/10/12 06:04:08;;;;;;;;;;;18.90;95.00;;;;;;5031661;28;20274;-76
2023/10/12 06:06:41;;;;;;;;;;;18.80;95.00;;;;;;5033080;28;19952;-77
2023/10/12 06:09:14;;;;;;;;;;;18.80;95.10;;;;;;5032942;28;19912;-77
2023/10/12 06:11:44;;;;;;;;;;;18.80;95.20;;;;;;5033109;28;19905;-76
2023/10/12 06:14:12;;;;;;;;;;;18.80;95.20;;;;;;5033026;28;19905;-76
2023/10/12 06:16:40;;;;;;;;;;;18.80;95.20;;;;;;5032053;28;19909;-76
2023/10/12 06:19:23;;;;;;;;;;;18.80;95.30;;;;;;5033118;28;20315;-77
2023/10/12 06:21:51;;;;;;;;;;;18.80;95.30;;;;;;5033100;28;20280;-77
2023/10/12 06:24:21;;;;;;;;;;;18.80;95.50;;;;;;5032852;28;19913;-76
2023/10/12 06:26:47;;;;;;;;;;;18.80;95.40;;;;;;5030448;28;20292;-76
2023/10/12 06:29:24;;;;;;;;;;;18.80;95.40;;;;;;5036427;28;20272;-76
2023/10/12 06:31:52;;;;;;;;;;;18.80;95.40;;;;;;5039583;28;19952;-77
2023/10/12 06:34:19;;;;;;;;;;;18.80;95.40;;;;;;5055419;28;20272;-75
2023/10/12 06:36:45;;;;;;;;;;;18.80;95.30;;;;;;5055613;28;19912;-74
2023/10/12 06:47:23;;;;;;;;;;;18.80;95.30;;;;;;5054251;28;19905;-77
2023/10/12 06:49:46;;;;;;;;;;;18.80;95.40;;;;;;5055411;28;19917;-75
2023/10/12 06:52:19;;;;;;;;;;;18.80;95.40;;;;;;5054275;28;20429;-80
2023/10/12 06:54:49;;;;;;;;;;;18.90;95.50;;;;;;5056044;28;19909;-83
2023/10/12 06:59:52;;;;;;;;;;;19.10;95.30;;;;;;5055203;28;19904;-81
2023/10/12 07:02:24;;;;;;;;;;;19.10;95.10;;;;;;5055158;28;19905;-83
2023/10/12 07:04:55;;;;;;;;;;;19.10;95.10;;;;;;5055207;28;19912;-82
2023/10/12 07:07:26;;;;;;;;;;;19.20;95.00;;;;;;5053410;28;20367;-83
2023/10/12 07:09:53;;;;;;;;;;;19.20;95.00;;;;;;5054919;28;20004;-82
2023/10/12 07:12:20;;;;;;;;;;;19.20;95.00;;;;;;5055178;28;19934;-76
2023/10/12 07:14:53;;;;;;;;;;;19.20;95.00;;;;;;5055646;28;19912;-76
2023/10/12 07:17:19;;;;;;;;;;;19.20;95.00;;;;;;5055438;28;20268;-75
2023/10/12 07:19:49;;;;;;;;;;;19.30;95.00;;;;;;5055757;28;19909;-77
2023/10/12 07:22:15;;;;;;;;;;;19.30;95.00;;;;;;5055746;28;19974;-76
2023/10/12 07:24:42;;;;;;;;;;;19.30;95.00;;;;;;5053728;28;19956;-75
2023/10/12 07:27:11;;;;;;;;;;;19.30;95.00;;;;;;5053446;28;20336;-76
2023/10/12 07:29:39;;;;;;;;;;;19.40;94.90;;;;;;5055255;28;19912;-76
2023/10/12 07:32:19;;;;;;;;;;;19.40;94.90;;;;;;5054929;28;19927;-76
2023/10/12 07:34:52;;;;;;;;;;;19.50;94.80;;;;;;5054406;28;19911;-79
2023/10/12 07:37:18;;;;;;;;;;;19.50;94.80;;;;;;5054991;28;19909;-76
2023/10/12 07:39:45;;;;;;;;;;;19.50;94.80;;;;;;5053385;28;19991;-74
2023/10/12 07:45:17;;;;;;;;;;;19.60;94.90;;;;;;4993033;28;19906;-77
2023/10/12 07:47:49;;;;;;;;;;;19.60;94.90;;;;;;5041994;28;19958;-76
2023/10/12 07:50:23;;;;;;;;;;;19.60;94.90;;;;;;5054201;28;20241;-77
2023/10/12 07:52:48;;;;;;;;;;;19.70;94.90;;;;;;5053223;28;20015;-76
2023/10/12 07:55:17;;;;;;;;;;;19.70;94.80;;;;;;5054324;28;19959;-76
2023/10/12 07:57:43;;;;;;;;;;;19.80;94.80;;;;;;5053191;28;20315;-75
2023/10/12 08:13:14;;;;;;;;;;;20.10;94.60;;;;;;5053885;28;20341;-75
2023/10/12 08:15:49;;;;;;;;;;;20.10;94.80;;;;;;5053891;28;19911;-75
2023/10/12 08:19:08;;;;;;;;;;;20.20;94.60;;;;;;5053276;28;20357;-79
2023/10/12 08:21:01;;;;;;;;;;;20.30;94.70;;;;;;5053023;28;19908;-78
2023/10/12 08:23:27;;;;;;;;;;;20.30;94.70;;;;;;5053753;28;20276;-77
2023/10/12 08:25:57;;;;;;;;;;;20.40;94.70;;;;;;5054486;28;19916;-76
2023/10/12 08:28:35;;;;;;;;;;;20.50;94.60;;;;;;5054075;28;20403;-76
2023/10/12 08:31:05;;;;;;;;;;;20.50;94.40;;;;;;5052813;28;20416;-77
2023/10/12 08:33:49;;;;;;;;;;;20.60;94.60;;;;;;5054109;28;20368;-77
2023/10/12 08:38:40;;;;;;;;;;;20.70;94.40;;;;;;5053670;28;19905;-76
2023/10/12 08:41:20;;;;;;;;;;;20.70;94.30;;;;;;5053701;28;20060;-77
2023/10/12 08:43:48;;;;;;;;;;;20.80;94.20;;;;;;5053775;28;20368;-77
2023/10/12 08:46:41;;;;;;;;;;;20.80;94.20;;;;;;5053199;28;19905;-76
2023/10/12 08:49:33;;;;;;;;;;;20.80;94.10;;;;;;5052994;28;19917;-76
2023/10/12 08:52:04;;;;;;;;;;;20.80;94.00;;;;;;5053135;28;19905;-75
2023/10/12 08:54:34;;;;;;;;;;;20.80;94.00;;;;;;5053693;28;20001;-81
2023/10/12 08:57:01;;;;;;;;;;;20.80;94.00;;;;;;5054010;28;20324;-75
2023/10/12 08:59:29;;;;;;;;;;;20.90;94.00;;;;;;5053873;28;19943;-75
2023/10/12 09:02:03;;;;;;;;;;;20.90;94.00;;;;;;5053747;28;20253;-75
2023/10/12 09:04:29;;;;;;;;;;;20.90;93.90;;;;;;5052724;28;19944;-75
2023/10/12 09:06:56;;;;;;;;;;;20.90;93.90;;;;;;5053758;28;19927;-75
2023/10/12 09:12:11;;;;;;;;;;;21.00;93.90;;;;;;5053694;28;19995;-77
2023/10/12 09:14:43;;;;;;;;;;;21.00;93.80;;;;;;5052269;28;19912;-76
2023/10/12 09:17:20;;;;;;;;;;;21.00;93.80;;;;;;5053956;28;19912;-76
2023/10/12 09:19:47;;;;;;;;;;;21.00;94.20;;;;;;5053621;28;19904;-76
2023/10/12 09:22:12;;;;;;;;;;;21.00;93.90;;;;;;5053356;28;19904;-75
2023/10/12 09:24:38;;;;;;;;;;;21.00;93.90;;;;;;5053581;28;20003;-75
2023/10/12 09:27:14;;;;;;;;;;;21.00;94.00;;;;;;5053186;28;19959;-76
2023/10/12 09:29:57;;;;;;;;;;;21.00;94.20;;;;;;5053082;28;20284;-75
2023/10/12 09:32:25;;;;;;;;;;;21.00;94.10;;;;;;5053028;28;19999;-76
2023/10/12 09:37:22;;;;;;;;;;;21.00;94.40;;;;;;5053202;28;20288;-74
2023/10/12 09:39:48;;;;;;;;;;;21.00;94.30;;;;;;5053086;28;19905;-76
2023/10/12 09:42:34;;;;;;;;;;;21.10;94.40;;;;;;5053280;28;19905;-76
2023/10/12 09:45:04;;;;;;;;;;;21.10;94.40;;;;;;5051114;28;20312;-76
2023/10/12 09:47:44;;;;;;;;;;;21.10;94.40;;;;;;5052748;28;20316;-77
2023/10/12 09:50:15;;;;;;;;;;;21.10;94.30;;;;;;5052909;28;19912;-77
2023/10/12 09:52:57;;;;;;;;;;;21.10;94.50;;;;;;5051621;28;19905;-77
2023/10/12 09:55:25;;;;;;;;;;;21.10;94.30;;;;;;5053000;28;19939;-78
2023/10/12 09:57:54;;;;;;;;;;;21.20;94.20;;;;;;5052781;28;20415;-76
2023/10/12 10:00:55;;;;;;;;;;;21.20;94.10;;;;;;5052599;28;19996;-77
2023/10/12 10:03:17;;;;;;;;;;;21.20;94.40;;;;;;5055923;28;19920;-78
2023/10/12 10:05:52;;;;;;;;;;;21.30;94.30;;;;;;5056731;28;20374;-77
2023/10/12 10:08:18;;;;;;;;;;;21.30;94.30;;;;;;5056283;28;20318;-77
2023/10/12 10:10:45;;;;;;;;;;;21.30;94.50;;;;;;5057213;28;19905;-79
2023/10/12 10:13:31;;;;;;;;;;;21.40;94.40;;;;;;5056496;28;19905;-84
2023/10/12 10:15:56;;;;;;;;;;;21.40;94.50;;;;;;5056519;28;19911;-84
2023/10/12 10:18:25;;;;;;;;;;;21.40;94.50;;;;;;5056651;28;19995;-83
2023/10/12 10:20:59;;;;;;;;;;;21.50;94.80;;;;;;5056174;28;20284;-84
2023/10/12 10:23:25;;;;;;;;;;;21.50;94.70;;;;;;5056097;28;19923;-83
2023/10/12 10:26:16;;;;;;;;;;;21.60;94.60;;;;;;5056309;28;19904;-83
2023/10/12 10:28:53;;;;;;;;;;;21.60;95.00;;;;;;5056101;28;19904;-81
2023/10/12 10:31:31;;;;;;;;;;;21.70;94.80;;;;;;5056718;28;19905;-75
2023/10/12 10:34:01;;;;;;;;;;;21.70;94.60;;;;;;5054062;28;19905;-76
2023/10/12 10:36:28;;;;;;;;;;;21.70;94.90;;;;;;5051700;28;19909;-76
2023/10/12 10:41:46;;;;;;;;;;;21.70;94.50;;;;;;5056643;28;19959;-75
2023/10/12 10:44:15;;;;;;;;;;;21.80;94.50;;;;;;5056165;28;19912;-75
2023/10/12 10:46:44;;;;;;;;;;;21.80;94.60;;;;;;5055925;28;19951;-76
2023/10/12 10:49:31;;;;;;;;;;;21.80;94.70;;;;;;5054696;28;20273;-76
2023/10/12 10:52:20;;;;;;;;;;;21.80;94.60;;;;;;5055886;28;19909;-77
2023/10/12 10:58:17;;;;;;;;;;;21.80;94.60;;;;;;4916142;29;19911;-76
2023/10/12 11:00:46;;;;;;;;;;;21.70;94.30;;;;;;4951333;28;19906;-76
2023/10/12 11:03:26;;;;;;;;;;;21.70;94.20;;;;;;4973099;28;19986;-75
2023/10/12 11:05:54;;;;;;;;;;;21.80;94.00;;;;;;4957396;28;20004;-77
2023/10/12 11:08:26;;;;;;;;;;;21.70;94.10;;;;;;4982744;28;19906;-76
2023/10/12 11:13:40;;;;;;;;;;;21.70;94.40;;;;;;5035512;28;20288;-77
2023/10/12 11:16:22;;;;;;;;;;;21.70;94.30;;;;;;5034339;28;20254;-77
2023/10/12 11:18:48;;;;;;;;;;;21.70;94.50;;;;;;5035292;28;19948;-76
2023/10/12 11:21:14;;;;;;;;;;;21.80;94.40;;;;;;5035295;28;19948;-76
2023/10/12 11:23:44;;;;;;;;;;;21.80;94.30;;;;;;5035053;28;19913;-76
2023/10/12 11:26:17;;;;;;;;;;;21.80;94.30;;;;;;5034238;28;20376;-77
2023/10/12 11:28:46;;;;;;;;;;;21.80;94.30;;;;;;5033383;28;19905;-77
2023/10/12 11:31:30;;;;;;;;;;;21.80;94.40;;;;;;5034008;28;20376;-77
2023/10/12 11:33:56;;;;;;;;;;;21.90;94.50;;;;;;5034040;28;19912;-77
2023/10/12 11:36:23;;;;;;;;;;;21.90;94.80;;;;;;5034832;28;20369;-78
2023/10/12 11:39:18;;;;;;;;;;;21.90;94.60;;;;;;5034795;28;19915;-77
2023/10/12 11:42:06;;;;;;;;;;;22.00;94.70;;;;;;5033059;28;20350;-77
2023/10/12 11:44:36;;;;;;;;;;;21.90;94.40;;;;;;5034542;28;20411;-77
2023/10/12 11:47:06;;;;;;;;;;;22.00;94.20;;;;;;5034467;28;19905;-77
2023/10/12 11:49:57;;;;;;;;;;;22.00;94.00;;;;;;5034616;28;20496;-76
2023/10/12 11:52:33;;;;;;;;;;;22.00;94.00;;;;;;5034262;28;19909;-77
2023/10/12 11:55:18;;;;;;;;;;;22.00;93.90;;;;;;5034725;28;19905;-76
2023/10/12 11:57:44;;;;;;;;;;;22.00;93.90;;;;;;5033474;28;19909;-76
2023/10/12 12:00:26;;;;;;;;;;;22.00;94.00;;;;;;5033195;28;20376;-76
2023/10/12 12:02:57;;;;;;;;;;;22.00;94.00;;;;;;5032793;28;19919;-78
2023/10/12 12:05:26;;;;;;;;;;;21.90;94.00;;;;;;5034367;28;19991;-76
2023/10/12 12:07:53;;;;;;;;;;;21.90;93.80;;;;;;5034779;28;19905;-75
2023/10/12 12:11:04;;;;;;;;;;;21.90;93.80;;;;;;5033170;28;19909;-76
2023/10/12 12:13:08;;;;;;;;;;;21.90;94.10;;;;;;5030038;28;20260;-76
2023/10/12 12:15:34;;;;;;;;;;;22.00;94.00;;;;;;5034554;28;20301;-75
2023/10/12 12:18:00;;;;;;;;;;;21.90;94.00;;;;;;5034958;28;20344;-76
2023/10/12 12:20:25;;;;;;;;;;;21.90;94.00;;;;;;5035116;28;19996;-75
2023/10/12 12:23:03;;;;;;;;;;;21.90;94.10;;;;;;5034718;28;19913;-74
2023/10/12 12:25:32;;;;;;;;;;;21.90;94.10;;;;;;5034088;28;20254;-75
2023/10/12 12:28:04;;;;;;;;;;;22.00;94.20;;;;;;5034225;28;20328;-75
2023/10/12 12:31:00;;;;;;;;;;;21.90;94.20;;;;;;5034465;28;19913;-73
2023/10/12 12:33:29;;;;;;;;;;;22.00;94.30;;;;;;5033112;28;19905;-72
2023/10/12 12:36:07;;;;;;;;;;;22.00;94.20;;;;;;5033854;28;19947;-72
2023/10/12 12:40:59;;;;;;;;;;;22.00;94.20;;;;;;5033887;28;19912;-71
2023/10/12 12:43:25;;;;;;;;;;;22.10;94.20;;;;;;5033709;28;20265;-73
2023/10/12 12:45:54;;;;;;;;;;;22.10;94.60;;;;;;5033894;28;19975;-72
2023/10/12 12:48:20;;;;;;;;;;;22.10;94.40;;;;;;5033413;28;20400;-72
2023/10/12 12:50:48;;;;;;;;;;;22.20;94.70;;;;;;5033512;28;19940;-73
2023/10/12 12:53:18;;;;;;;;;;;22.30;94.60;;;;;;5032807;28;20326;-72
2023/10/12 12:55:44;;;;;;;;;;;22.30;93.80;;;;;;5032561;28;20296;-72
2023/10/12 12:58:14;;;;;;;;;;;22.40;93.50;;;;;;5033564;28;19951;-72
2023/10/12 13:00:40;;;;;;;;;;;22.40;93.50;;;;;;5033445;28;19995;-72
2023/10/12 13:03:09;;;;;;;;;;;22.40;93.70;;;;;;5033351;28;19924;-71
2023/10/12 13:05:34;;;;;;;;;;;22.40;93.70;;;;;;5033493;28;19948;-71
2023/10/12 13:08:00;;;;;;;;;;;22.40;94.00;;;;;;5033233;28;20391;-73
2023/10/12 13:10:26;;;;;;;;;;;22.40;94.10;;;;;;5033116;28;19951;-72
2023/10/12 13:12:52;;;;;;;;;;;22.40;94.10;;;;;;5033104;28;19966;-71
2023/10/12 13:15:18;;;;;;;;;;;22.40;94.10;;;;;;5033270;28;20402;-72
2023/10/12 13:17:44;;;;;;;;;;;22.40;93.90;;;;;;5032922;28;19952;-72
2023/10/12 13:20:21;;;;;;;;;;;22.40;93.90;;;;;;5032989;28;19905;-72
2023/10/12 13:22:46;;;;;;;;;;;22.40;94.00;;;;;;5033395;28;20358;-72
2023/10/12 13:25:14;;;;;;;;;;;22.40;94.00;;;;;;5032955;28;19912;-73
2023/10/12 13:27:40;;;;;;;;;;;22.40;94.00;;;;;;5033027;28;20404;-72
2023/10/12 13:30:09;;;;;;;;;;;22.40;93.90;;;;;;5032915;28;20009;-78
2023/10/12 13:32:36;;;;;;;;;;;22.40;94.00;;;;;;5033407;28;20254;-79
2023/10/12 13:35:17;;;;;;;;;;;22.40;94.40;;;;;;5032417;28;20087;-78
2023/10/12 13:37:46;;;;;;;;;;;22.40;94.20;;;;;;5035163;28;19911;-77
2023/10/12 13:40:15;;;;;;;;;;;22.40;94.10;;;;;;5037268;28;19912;-77
2023/10/12 13:42:41;;;;;;;;;;;22.50;94.10;;;;;;5037171;28;19921;-77
2023/10/12 13:45:07;;;;;;;;;;;22.50;93.70;;;;;;5037030;28;20349;-78
2023/10/12 13:47:33;;;;;;;;;;;22.40;93.50;;;;;;5036980;28;19959;-79
2023/10/12 13:49:58;;;;;;;;;;;22.40;93.60;;;;;;5037115;28;19917;-72
2023/10/12 13:52:24;;;;;;;;;;;22.50;93.70;;;;;;5036336;28;19909;-72
2023/10/12 13:54:52;;;;;;;;;;;22.40;93.70;;;;;;5036568;28;19912;-72
2023/10/12 13:57:17;;;;;;;;;;;22.40;93.80;;;;;;5036564;28;19972;-72
2023/10/12 13:59:49;;;;;;;;;;;22.40;93.80;;;;;;5037584;28;19991;-72
2023/10/12 14:02:15;;;;;;;;;;;22.40;93.90;;;;;;5037359;28;19928;-72
2023/10/12 14:04:54;;;;;;;;;;;22.40;93.90;;;;;;5037221;28;19995;-72
2023/10/12 14:07:20;;;;;;;;;;;22.40;93.90;;;;;;5037515;28;20315;-72
2023/10/12 14:09:57;;;;;;;;;;;22.40;93.90;;;;;;5037138;28;19905;-72
2023/10/12 14:12:24;;;;;;;;;;;22.40;93.90;;;;;;5037525;28;19912;-72
2023/10/12 14:14:50;;;;;;;;;;;22.40;94.00;;;;;;5035297;28;20379;-72
2023/10/12 14:17:18;;;;;;;;;;;22.40;94.00;;;;;;5034802;28;19984;-72
2023/10/12 14:19:44;;;;;;;;;;;22.30;94.00;;;;;;5034543;28;20350;-72
2023/10/12 14:22:10;;;;;;;;;;;22.40;94.10;;;;;;5034856;28;19944;-72
2023/10/12 14:24:38;;;;;;;;;;;22.40;94.10;;;;;;5035122;28;19917;-72
2023/10/12 14:27:07;;;;;;;;;;;22.40;94.20;;;;;;5034774;28;19932;-73
2023/10/12 14:29:33;;;;;;;;;;;22.40;94.20;;;;;;5034826;28;19909;-72
2023/10/12 14:32:02;;;;;;;;;;;22.40;94.40;;;;;;5036610;28;20070;-73
2023/10/12 14:34:28;;;;;;;;;;;22.40;94.30;;;;;;5036477;28;19998;-73
2023/10/12 14:36:53;;;;;;;;;;;22.40;94.30;;;;;;5036394;28;19956;-73
2023/10/12 14:39:22;;;;;;;;;;;22.40;94.20;;;;;;5036303;28;19940;-72
2023/10/12 14:41:48;;;;;;;;;;;22.40;94.30;;;;;;5036132;28;19909;-72
2023/10/12 14:44:16;;;;;;;;;;;22.40;94.20;;;;;;5035877;28;19920;-72
2023/10/12 14:46:44;;;;;;;;;;;22.40;94.20;;;;;;5035781;28;20276;-73
2023/10/12 14:49:11;;;;;;;;;;;22.40;94.20;;;;;;5035019;28;19917;-73
2023/10/12 14:51:37;;;;;;;;;;;22.40;94.20;;;;;;5035535;28;19905;-71
2023/10/12 15:13:16;;;;;;;68.05;29.40;;;22.10;94.30;;;;;;5110902;27;20109;-73
2023/10/12 15:15:47;;;;;;;51.58;28.80;;;22.10;94.90;;;;;;5109975;28;20107;-73
2023/10/12 15:18:14;;;;;;;49.67;28.35;;;22.10;95.20;;;;;;5109968;28;20020;-71
2023/10/12 15:20:43;;;;;;;44.92;26.38;;;22.00;95.10;;;;;;5107221;28;20060;-74
2023/10/12 15:23:10;;;;;;;50.65;28.02;;;22.00;95.10;;;;;;5108460;28;20024;-76
2023/10/12 15:25:39;;;;;;;43.22;26.48;;;22.00;95.00;;;;;;5108851;28;20034;-75
2023/10/12 15:28:12;;;;;;;48.03;28.95;;;22.10;95.00;;;;;;5109225;28;20061;-73
2023/10/12 15:30:42;;;;;;;50.55;30.42;;;22.10;95.00;;;;;;5109390;28;20085;-71
2023/10/12 15:33:10;;;;;;;49.00;29.83;;;22.10;95.10;;;;;;5110639;28;20036;-71
2023/10/12 15:35:36;;;;;;;52.55;29.15;;;22.10;95.00;;;;;;5110475;28;20022;-72
2023/10/12 15:38:03;;;;;;;55.78;31.00;;;22.10;95.10;;;;;;5110984;28;20353;-72
2023/10/12 15:40:29;;;;;;;51.25;31.13;;;22.20;95.20;;;;;;5110258;28;20081;-71
2023/10/12 15:43:04;;;;;;;49.70;29.38;;;22.20;95.10;;;;;;5110474;28;20054;-71
2023/10/12 15:45:38;;;;;;;53.60;29.98;;;22.20;95.10;;;;;;5109416;28;20031;-71
2023/10/12 15:48:07;;;;;;;46.25;30.20;;;22.20;95.00;;;;;;5110130;28;20063;-72
2023/10/12 15:50:35;;;;;;;51.50;31.98;;;22.20;95.00;;;;;;5110200;28;20028;-71
2023/10/12 15:53:02;;;;;;;49.10;31.58;;;22.20;95.00;;;;;;5109839;28;20425;-70
2023/10/12 15:55:30;;;;;;;43.28;30.33;;;22.20;95.00;;;;;;5109654;28;20073;-70
2023/10/12 15:57:57;;;;;;;127.07;34.63;;;22.20;95.00;;;;;;5109975;28;20028;-70
2023/10/12 16:00:24;;;;;;;54.00;32.00;;;22.20;95.20;;;;;;5108289;28;20073;-76
2023/10/12 16:03:21;;;;;;;44.80;30.05;;;22.20;95.10;;;;;;5109541;28;20422;-71
2023/10/12 16:05:49;;;;;;;58.22;31.80;;;22.20;95.00;;;;;;5053241;28;20440;-71
2023/10/12 16:08:16;;;;;;;51.88;29.45;;;22.20;95.00;;;;;;5109725;28;20028;-72
2023/10/12 16:10:50;;;;;;;52.80;31.10;;;22.20;95.00;;;;;;5109316;28;20015;-71
2023/10/12 16:13:16;;;;;;;51.28;33.63;;;22.20;95.00;;;;;;5087605;28;20040;-71
2023/10/12 16:15:45;;;;;;;51.30;32.05;;;22.20;95.00;;;;;;5087556;28;20035;-72
2023/10/12 16:18:11;;;;;;;48.70;32.40;;;22.20;95.00;;;;;;5089178;28;20477;-72
2023/10/12 16:20:38;;;;;;;49.47;31.10;;;22.10;95.00;;;;;;5088589;28;20020;-78
2023/10/12 16:23:04;;;;;;;46.30;31.10;;;22.10;94.90;;;;;;5082166;28;20052;-72
2023/10/12 16:25:31;;;;;;;55.72;31.48;;;22.10;94.80;;;;;;5074875;28;20056;-70
2023/10/12 16:27:58;;;;;;;53.22;32.05;;;22.10;94.90;;;;;;5075445;28;20368;-70
2023/10/12 16:30:25;;;;;;;51.20;31.77;;;22.10;94.80;;;;;;5075177;28;20027;-71